Time;durP1;ratioP1;P1;durP2;ratioP2;P2;SDS_P1;SDS_P2;PMS_P1;PMS_P2;Temp;Humidity;BMP_temperature;BMP_pressure;BME280_temperature;BME280_humidity;BME280_pressure;Samples;Min_cycle;Max_cycle;Signal;HPM_P1;HPM_P2
2021/12/23 00:02:47;;;;;;;131.37;59.43;;;;;;;;;;6246710;28;20115;-67
2021/12/23 00:05:47;;;;;;;142.73;59.53;;;;;;;;;;6246352;28;20026;-67
2021/12/23 00:08:47;;;;;;;123.20;61.77;;;;;;;;;;6244872;28;20033;-67
2021/12/23 00:11:47;;;;;;;136.73;61.57;;;;;;;;;;6238860;28;20073;-67
2021/12/23 00:14:50;;;;;;;134.93;60.63;;;;;;;;;;6246639;28;20029;-68
2021/12/23 00:24:15;;;;;;;130.05;58.67;;;;;;;;;;6235471;28;20049;-67
2021/12/23 00:27:16;;;;;;;127.13;58.00;;;;;;;;;;6239324;28;20175;-68
2021/12/23 00:30:16;;;;;;;134.13;58.13;;;;;;;;;;6232084;28;20032;-67
2021/12/23 00:33:16;;;;;;;127.90;58.30;;;;;;;;;;6223192;28;20026;-67
2021/12/23 00:36:17;;;;;;;137.40;59.47;;;;;;;;;;6222977;28;20018;-68
2021/12/23 00:39:17;;;;;;;125.07;57.80;;;;;;;;;;6221474;28;20014;-67
2021/12/23 00:42:18;;;;;;;132.97;58.57;;;;;;;;;;6221078;28;20022;-67
2021/12/23 00:45:18;;;;;;;126.28;58.47;;;;;;;;;;6221549;28;20013;-67
2021/12/23 00:48:18;;;;;;;123.47;59.47;;;;;;;;;;6221222;28;20033;-67
2021/12/23 00:51:19;;;;;;;120.67;56.27;;;;;;;;;;6236030;28;20025;-68
2021/12/23 00:54:19;;;;;;;120.63;53.50;;;;;;;;;;6245745;28;20653;-68
2021/12/23 00:57:26;;;;;;;117.32;54.95;;;;;;;;;;6245516;28;20028;-68
2021/12/23 01:00:27;;;;;;;136.80;58.70;;;;;;;;;;6244934;28;20109;-67
2021/12/23 01:03:27;;;;;;;111.93;53.07;;;;;;;;;;6245280;28;20022;-68
2021/12/23 01:06:28;;;;;;;120.33;57.23;;;;;;;;;;6245055;28;20412;-67
2021/12/23 01:09:28;;;;;;;128.97;51.23;;;;;;;;;;6244884;28;20053;-67
2021/12/23 01:12:35;;;;;;;110.67;52.43;;;;;;;;;;6244774;28;20464;-68
2021/12/23 01:18:42;;;;;;;;;;;;;;;;;;6244343;28;20053;-67
2021/12/23 01:21:42;;;;;;;120.53;55.53;;;;;;;;;;6237403;28;19912;-68
2021/12/23 01:24:42;;;;;;;117.90;56.67;;;;;;;;;;6243988;28;20358;-68
2021/12/23 01:27:43;;;;;;;116.33;49.07;;;;;;;;;;6244271;28;20088;-68
2021/12/23 01:30:43;;;;;;;108.43;51.37;;;;;;;;;;6244339;28;20477;-68
2021/12/23 01:33:43;;;;;;;111.40;51.23;;;;;;;;;;6244462;28;20059;-68
2021/12/23 01:36:44;;;;;;;122.63;52.73;;;;;;;;;;6244311;28;20075;-68
2021/12/23 01:39:44;;;;;;;117.37;52.07;;;;;;;;;;6243684;28;20072;-68
2021/12/23 01:42:44;;;;;;;111.20;53.30;;;;;;;;;;6220986;28;20076;-68
2021/12/23 01:45:47;;;;;;;115.97;53.90;;;;;;;;;;6220197;28;20022;-69
2021/12/23 01:48:48;;;;;;;116.13;53.67;;;;;;;;;;6228894;28;20023;-68
2021/12/23 01:51:48;;;;;;;97.13;44.20;;;;;;;;;;6243977;28;20022;-68
2021/12/23 01:54:48;;;;;;;96.43;43.43;;;;;;;;;;6244437;28;20020;-68
2021/12/23 01:57:50;;;;;;;110.63;50.43;;;;;;;;;;6244349;28;20428;-68
2021/12/23 02:00:51;;;;;;;111.32;52.08;;;;;;;;;;6243761;28;20101;-68
2021/12/23 02:03:51;;;;;;;117.13;50.90;;;;;;;;;;6244107;28;20112;-69
2021/12/23 02:06:51;;;;;;;113.73;55.10;;;;;;;;;;6243666;28;20026;-68
2021/12/23 02:09:54;;;;;;;110.03;47.70;;;;;;;;;;6243394;28;20509;-68
2021/12/23 02:12:55;;;;;;;129.65;52.88;;;;;;;;;;6243337;28;20083;-68
2021/12/23 02:15:55;;;;;;;113.13;48.00;;;;;;;;;;6243389;28;20033;-68
2021/12/23 02:18:55;;;;;;;122.33;52.13;;;;;;;;;;6243472;28;20024;-68
2021/12/23 02:21:56;;;;;;;112.17;51.27;;;;;;;;;;6243917;28;20079;-68
2021/12/23 02:24:56;;;;;;;119.93;50.13;;;;;;;;;;6243555;28;20028;-68
2021/12/23 02:27:57;;;;;;;102.70;48.17;;;;;;;;;;6243244;28;20095;-68
2021/12/23 02:30:57;;;;;;;110.45;52.17;;;;;;;;;;6242707;28;20076;-68
2021/12/23 02:33:58;;;;;;;118.90;50.20;;;;;;;;;;6243406;28;20025;-68
2021/12/23 02:36:59;;;;;;;97.03;41.13;;;;;;;;;;6243223;28;20124;-68
2021/12/23 02:39:59;;;;;;;115.93;51.70;;;;;;;;;;6242496;28;20092;-68
2021/12/23 02:43:29;;;;;;;105.43;47.73;;;;;;;;;;6243256;28;20016;-69
2021/12/23 02:46:30;;;;;;;109.13;45.70;;;;;;;;;;6230140;28;20087;-68
2021/12/23 02:49:30;;;;;;;104.13;45.03;;;;;;;;;;6243051;28;20013;-68
2021/12/23 02:52:31;;;;;;;97.97;45.67;;;;;;;;;;6243698;28;20055;-68
2021/12/23 02:55:31;;;;;;;113.90;46.40;;;;;;;;;;6243298;28;20419;-68
2021/12/23 02:58:33;;;;;;;116.40;44.80;;;;;;;;;;6243011;28;20082;-69
2021/12/23 03:01:33;;;;;;;95.93;46.88;;;;;;;;;;6242268;28;20021;-68
2021/12/23 03:04:33;;;;;;;100.30;40.67;;;;;;;;;;6242901;28;20306;-68
2021/12/23 03:07:34;;;;;;;117.93;47.17;;;;;;;;;;6242759;28;20083;-68
2021/12/23 03:10:34;;;;;;;116.60;52.20;;;;;;;;;;6242171;28;20025;-68
2021/12/23 03:13:35;;;;;;;98.90;45.60;;;;;;;;;;6242452;28;20021;-68
2021/12/23 03:16:38;;;;;;;122.50;52.40;;;;;;;;;;6242520;28;20061;-68
2021/12/23 03:19:38;;;;;;;121.75;47.00;;;;;;;;;;6242556;28;20252;-68
2021/12/23 03:22:39;;;;;;;110.87;49.40;;;;;;;;;;6234889;28;20018;-68
2021/12/23 03:25:39;;;;;;;93.17;42.60;;;;;;;;;;6242882;28;20140;-68
2021/12/23 03:28:39;;;;;;;111.40;46.17;;;;;;;;;;6242296;28;20045;-68
2021/12/23 03:31:40;;;;;;;123.80;53.27;;;;;;;;;;6220632;28;20076;-68
2021/12/23 03:34:40;;;;;;;111.53;51.50;;;;;;;;;;6218083;28;20017;-68
2021/12/23 03:37:40;;;;;;;115.50;46.60;;;;;;;;;;6221558;28;20022;-68
2021/12/23 03:40:41;;;;;;;103.77;47.90;;;;;;;;;;6242188;28;20473;-68
2021/12/23 03:43:42;;;;;;;107.73;48.43;;;;;;;;;;6242068;28;20344;-69
2021/12/23 03:46:42;;;;;;;116.47;50.43;;;;;;;;;;6242386;28;20044;-68
2021/12/23 03:49:43;;;;;;;103.63;50.50;;;;;;;;;;6242033;28;20648;-68
2021/12/23 03:52:44;;;;;;;105.87;43.13;;;;;;;;;;6246829;28;20377;-68
2021/12/23 03:55:44;;;;;;;101.60;44.17;;;;;;;;;;6246793;28;20025;-68
2021/12/23 03:58:44;;;;;;;114.37;49.20;;;;;;;;;;6246252;28;20045;-68
2021/12/23 04:01:45;;;;;;;128.30;53.43;;;;;;;;;;6246233;28;20027;-68
2021/12/23 04:04:45;;;;;;;114.30;52.63;;;;;;;;;;6246412;28;20381;-68
2021/12/23 04:07:45;;;;;;;117.27;47.57;;;;;;;;;;6246539;28;20100;-68
2021/12/23 04:10:46;;;;;;;105.40;52.03;;;;;;;;;;6245999;28;20053;-68
2021/12/23 04:13:47;;;;;;;122.93;55.90;;;;;;;;;;6245879;28;20013;-68
2021/12/23 04:16:47;;;;;;;83.77;42.60;;;;;;;;;;6246347;28;20022;-68
2021/12/23 04:19:49;;;;;;;110.73;51.03;;;;;;;;;;6245779;28;20461;-68
2021/12/23 04:22:51;;;;;;;108.30;49.40;;;;;;;;;;6245046;28;20022;-68
2021/12/23 04:25:51;;;;;;;103.32;48.08;;;;;;;;;;6245888;28;20255;-68
2021/12/23 04:28:52;;;;;;;105.40;47.03;;;;;;;;;;6245999;28;20419;-68
2021/12/23 04:31:52;;;;;;;116.43;50.63;;;;;;;;;;6245570;28;20131;-69
2021/12/23 04:34:53;;;;;;;116.30;49.17;;;;;;;;;;6246229;28;20100;-68
2021/12/23 04:37:53;;;;;;;118.40;48.97;;;;;;;;;;6245967;28;20373;-69
2021/12/23 04:40:53;;;;;;;109.50;44.17;;;;;;;;;;6245240;28;20350;-68
2021/12/23 04:43:54;;;;;;;122.40;51.63;;;;;;;;;;6245576;28;20017;-68
2021/12/23 04:46:55;;;;;;;98.88;48.88;;;;;;;;;;6245898;28;20033;-68
2021/12/23 04:49:55;;;;;;;91.53;45.07;;;;;;;;;;6245522;28;20072;-68
2021/12/23 04:52:55;;;;;;;90.60;40.67;;;;;;;;;;6246458;28;20026;-68
2021/12/23 04:55:56;;;;;;;94.37;44.53;;;;;;;;;;6245142;28;20171;-68
2021/12/23 04:58:56;;;;;;;100.43;43.73;;;;;;;;;;6245572;28;20087;-68
2021/12/23 05:01:56;;;;;;;79.90;39.27;;;;;;;;;;6244323;28;20083;-68
2021/12/23 05:04:56;;;;;;;98.67;44.27;;;;;;;;;;6245146;28;20056;-68
2021/12/23 05:07:57;;;;;;;103.47;41.23;;;;;;;;;;6245104;28;20485;-68
2021/12/23 05:10:57;;;;;;;101.33;41.93;;;;;;;;;;6243947;28;20060;-69
2021/12/23 05:13:57;;;;;;;100.13;42.23;;;;;;;;;;6234727;28;20399;-68
2021/12/23 05:16:57;;;;;;;102.43;39.67;;;;;;;;;;6240540;28;20029;-68
2021/12/23 05:19:58;;;;;;;88.37;39.17;;;;;;;;;;6242207;28;20083;-68
2021/12/23 05:22:58;;;;;;;106.87;45.30;;;;;;;;;;6245633;28;20029;-68
2021/12/23 05:25:58;;;;;;;91.20;40.67;;;;;;;;;;6244190;28;20389;-68
2021/12/23 05:28:59;;;;;;;92.67;43.97;;;;;;;;;;6245023;28;20486;-68
2021/12/23 05:31:59;;;;;;;89.97;37.43;;;;;;;;;;6243914;28;20060;-68
2021/12/23 05:34:59;;;;;;;106.60;44.10;;;;;;;;;;6244457;28;20013;-68
2021/12/23 05:37:59;;;;;;;110.73;45.53;;;;;;;;;;6244260;28;20386;-68
2021/12/23 05:41:00;;;;;;;102.10;44.23;;;;;;;;;;6240978;28;20028;-69
2021/12/23 05:44:00;;;;;;;103.17;46.80;;;;;;;;;;6218713;28;20022;-69
2021/12/23 05:47:00;;;;;;;98.07;40.90;;;;;;;;;;6219311;28;20530;-68
2021/12/23 05:50:01;;;;;;;98.13;42.00;;;;;;;;;;6224050;28;20021;-68
2021/12/23 05:53:01;;;;;;;94.87;43.80;;;;;;;;;;6244196;28;20079;-68
2021/12/23 05:56:01;;;;;;;101.13;39.23;;;;;;;;;;6243812;28;20079;-68
2021/12/23 05:59:02;;;;;;;92.23;40.67;;;;;;;;;;6243968;28;20029;-68
2021/12/23 06:02:05;;;;;;;99.63;41.63;;;;;;;;;;6243517;28;20032;-68
2021/12/23 06:05:05;;;;;;;90.45;42.00;;;;;;;;;;6244057;28;20021;-68
2021/12/23 06:08:06;;;;;;;96.30;43.63;;;;;;;;;;6243521;28;20074;-68
2021/12/23 06:11:06;;;;;;;102.50;45.80;;;;;;;;;;6242700;28;20295;-68
2021/12/23 06:14:07;;;;;;;99.27;47.53;;;;;;;;;;6243673;28;20028;-68
2021/12/23 06:17:07;;;;;;;108.77;41.90;;;;;;;;;;6243355;28;20021;-68
2021/12/23 06:20:08;;;;;;;108.77;43.27;;;;;;;;;;6223177;28;20014;-68
2021/12/23 06:23:08;;;;;;;96.43;42.55;;;;;;;;;;6229607;28;20036;-68
2021/12/23 06:26:09;;;;;;;111.97;45.33;;;;;;;;;;6243733;28;20063;-68
2021/12/23 06:29:09;;;;;;;101.90;42.07;;;;;;;;;;6243228;28;20048;-68
2021/12/23 06:32:10;;;;;;;86.77;41.97;;;;;;;;;;6237104;28;20026;-68
2021/12/23 06:35:10;;;;;;;107.03;46.30;;;;;;;;;;6218602;28;20026;-68
2021/12/23 06:38:11;;;;;;;93.60;40.83;;;;;;;;;;6220150;28;20048;-68
2021/12/23 06:41:12;;;;;;;86.57;40.97;;;;;;;;;;6218338;28;20109;-68
2021/12/23 06:44:12;;;;;;;100.75;43.15;;;;;;;;;;6217739;28;20029;-68
2021/12/23 06:47:13;;;;;;;97.87;42.00;;;;;;;;;;6218442;28;20026;-68
2021/12/23 06:50:15;;;;;;;91.20;39.93;;;;;;;;;;6225439;28;20030;-69
2021/12/23 06:53:16;;;;;;;89.05;38.75;;;;;;;;;;6226503;28;20131;-69
2021/12/23 06:56:18;;;;;;;87.20;39.33;;;;;;;;;;6217203;28;20026;-69
2021/12/23 06:59:18;;;;;;;98.13;40.47;;;;;;;;;;6217544;28;20014;-69
2021/12/23 07:02:18;;;;;;;105.27;46.90;;;;;;;;;;6216230;28;20037;-69
2021/12/23 07:05:19;;;;;;;88.20;44.70;;;;;;;;;;6216404;28;20028;-69
2021/12/23 07:08:28;;;;;;;91.87;40.00;;;;;;;;;;6216580;28;20026;-69
2021/12/23 07:11:28;;;;;;;97.32;41.13;;;;;;;;;;6238819;28;20501;-69
2021/12/23 07:14:28;;;;;;;104.17;43.87;;;;;;;;;;6231175;28;20033;-69
2021/12/23 07:17:29;;;;;;;87.50;40.47;;;;;;;;;;6218964;28;20029;-69
2021/12/23 07:20:29;;;;;;;101.40;43.47;;;;;;;;;;6220593;28;20398;-69
2021/12/23 07:23:29;;;;;;;104.17;43.70;;;;;;;;;;6238635;28;20025;-67
2021/12/23 07:26:30;;;;;;;95.50;43.90;;;;;;;;;;6243865;28;20028;-68
2021/12/23 07:29:30;;;;;;;88.53;41.70;;;;;;;;;;6246430;28;20392;-68
2021/12/23 07:32:30;;;;;;;95.50;42.20;;;;;;;;;;6246491;28;20029;-68
2021/12/23 07:35:31;;;;;;;95.00;43.43;;;;;;;;;;6246980;28;20520;-68
2021/12/23 07:38:32;;;;;;;88.73;41.80;;;;;;;;;;6246744;28;20129;-68
2021/12/23 07:41:33;;;;;;;103.83;47.47;;;;;;;;;;6239736;28;20030;-68
2021/12/23 07:44:34;;;;;;;91.13;42.40;;;;;;;;;;6239914;28;20079;-68
2021/12/23 07:47:36;;;;;;;93.82;43.28;;;;;;;;;;6240451;28;20029;-68
2021/12/23 07:50:37;;;;;;;91.03;41.70;;;;;;;;;;6239581;28;20492;-68
2021/12/23 07:53:37;;;;;;;96.87;42.90;;;;;;;;;;6241581;28;20108;-68
2021/12/23 07:56:38;;;;;;;86.63;39.40;;;;;;;;;;6244759;28;20117;-69
2021/12/23 07:59:38;;;;;;;99.50;42.50;;;;;;;;;;6234887;28;20032;-68
2021/12/23 08:02:38;;;;;;;80.10;38.23;;;;;;;;;;6225700;28;20430;-69
2021/12/23 08:05:41;;;;;;;82.30;37.22;;;;;;;;;;6233021;28;20018;-68
2021/12/23 08:08:41;;;;;;;93.93;42.53;;;;;;;;;;6221656;28;20030;-68
2021/12/23 08:11:42;;;;;;;98.57;40.72;;;;;;;;;;6241142;28;20465;-68
2021/12/23 08:14:42;;;;;;;85.75;43.72;;;;;;;;;;6245476;28;20108;-68
2021/12/23 08:17:42;;;;;;;99.22;43.67;;;;;;;;;;6232660;28;20510;-68
2021/12/23 08:20:43;;;;;;;92.70;41.13;;;;;;;;;;6227268;28;20025;-68
2021/12/23 08:23:43;;;;;;;89.93;42.25;;;;;;;;;;6236938;28;20057;-68
2021/12/23 08:26:50;;;;;;;89.75;40.80;;;;;;;;;;6244413;28;20067;-68
2021/12/23 08:29:51;;;;;;;81.03;41.47;;;;;;;;;;6219483;28;20022;-68
2021/12/23 08:32:51;;;;;;;93.93;41.83;;;;;;;;;;6218506;28;20025;-69
2021/12/23 08:35:51;;;;;;;84.95;41.17;;;;;;;;;;6221777;28;20022;-69
2021/12/23 08:38:52;;;;;;;77.97;38.40;;;;;;;;;;6217654;28;20753;-69
2021/12/23 08:41:52;;;;;;;80.13;40.28;;;;;;;;;;6218609;28;20021;-69
2021/12/23 08:44:52;;;;;;;76.38;37.60;;;;;;;;;;6219179;28;20030;-69
2021/12/23 08:47:54;;;;;;;85.18;38.70;;;;;;;;;;6219118;28;20030;-68
2021/12/23 08:50:55;;;;;;;80.97;37.58;;;;;;;;;;6232287;28;20029;-69
2021/12/23 08:53:55;;;;;;;85.30;39.55;;;;;;;;;;6240553;28;20094;-69
2021/12/23 08:56:56;;;;;;;82.38;39.00;;;;;;;;;;6217674;28;20117;-69
2021/12/23 08:59:56;;;;;;;84.22;39.17;;;;;;;;;;6219999;28;20099;-69
2021/12/23 09:02:57;;;;;;;82.90;37.92;;;;;;;;;;6218085;28;20103;-66
2021/12/23 09:05:57;;;;;;;87.40;39.42;;;;;;;;;;6215727;28;20084;-67
2021/12/23 09:08:58;;;;;;;81.15;38.95;;;;;;;;;;6215149;28;20390;-67
2021/12/23 09:11:59;;;;;;;93.93;41.75;;;;;;;;;;6218815;28;20045;-67
2021/12/23 09:14:59;;;;;;;111.43;51.42;;;;;;;;;;6217465;28;20029;-67
2021/12/23 09:17:59;;;;;;;96.38;44.45;;;;;;;;;;6227309;28;20111;-67
2021/12/23 09:21:00;;;;;;;105.63;50.13;;;;;;;;;;6231593;28;20573;-67
2021/12/23 09:24:01;;;;;;;107.32;53.08;;;;;;;;;;6239977;28;20084;-67
2021/12/23 09:27:15;;;;;;;112.53;51.77;;;;;;;;;;6232837;28;20477;-67
2021/12/23 09:33:37;;;;;;;69.90;35.58;;;;;;;;;;6219416;28;20041;-67
2021/12/23 09:36:38;;;;;;;77.95;36.13;;;;;;;;;;6222879;28;21396;-67
2021/12/23 09:39:38;;;;;;;64.27;33.90;;;;;;;;;;6224296;28;20530;-67
2021/12/23 09:42:39;;;;;;;61.65;34.50;;;;;;;;;;6218282;28;20080;-67
2021/12/23 09:45:40;;;;;;;63.67;31.85;;;;;;;;;;6219354;28;20018;-67
2021/12/23 09:48:42;;;;;;;78.45;37.00;;;;;;;;;;6226206;28;20022;-67
2021/12/23 09:51:42;;;;;;;;;;;;;;;;;;6225872;28;20037;-68
2021/12/23 09:54:43;;;;;;;56.22;28.45;;;;;;;;;;6243411;28;19927;-67
2021/12/23 09:57:44;;;;;;;67.82;34.17;;;;;;;;;;6222592;28;20045;-67
2021/12/23 10:00:46;;;;;;;68.87;32.70;;;;;;;;;;6223673;28;20097;-67
2021/12/23 10:03:46;;;;;;;64.65;29.92;;;;;;;;;;6234544;28;20272;-67
2021/12/23 10:06:48;;;;;;;57.10;27.55;;;;;;;;;;6243002;28;20389;-67
2021/12/23 10:10:08;;;;;;;86.10;37.08;;;;;;;;;;6241889;28;20102;-67
2021/12/23 10:33:43;;;;;;;119.57;46.75;;;;;;;;;;6235477;28;19917;-68
2021/12/23 10:40:05;;;;;;;144.02;55.00;;;;;;;;;;6237687;28;20478;-68
2021/12/23 10:43:08;;;;;;;77.90;34.20;;;;;;;;;;6220292;28;20030;-69
2021/12/23 10:46:16;;;;;;;68.18;33.17;;;;;;;;;;6238775;28;20026;-68
2021/12/23 10:52:26;;;;;;;91.45;39.13;;;;;;;;;;6242950;28;20064;-68
2021/12/23 10:58:27;;;;;;;67.88;34.35;;;;;;;;;;6235089;28;20525;-68
2021/12/23 11:01:28;;;;;;;60.45;29.02;;;;;;;;;;6244799;28;20024;-68
2021/12/23 11:04:33;;;;;;;227.45;86.20;;;;;;;;;;6248458;28;20029;-68
2021/12/23 11:07:38;;;;;;;204.60;69.07;;;;;;;;;;6235647;28;20026;-69
2021/12/23 11:37:08;;;;;;;53.90;25.95;;;;;;;;;;6236508;28;20105;-68
2021/12/23 11:40:48;;;;;;;100.50;42.17;;;;;;;;;;6244773;28;20025;-68
2021/12/23 11:43:52;;;;;;;98.10;38.63;;;;;;;;;;6246297;28;20029;-68
2021/12/23 11:46:56;;;;;;;65.80;24.25;;;;;;;;;;6239947;28;20096;-69
2021/12/23 11:49:56;;;;;;;61.92;29.70;;;;;;;;;;6228376;28;20029;-69
2021/12/23 11:52:57;;;;;;;50.67;24.67;;;;;;;;;;6245511;28;20088;-68
2021/12/23 11:55:59;;;;;;;53.05;25.98;;;;;;;;;;6237783;28;20695;-68
2021/12/23 11:59:03;;;;;;;50.53;22.70;;;;;;;;;;6219816;28;20044;-68
2021/12/23 12:02:14;;;;;;;51.47;28.30;;;;;;;;;;6220059;28;20275;-68
2021/12/23 12:05:16;;;;;;;48.60;26.27;;;;;;;;;;6219827;28;20026;-70
2021/12/23 12:08:16;;;;;;;;;;;;;;;;;;6225782;28;20031;-68
2021/12/23 12:11:18;;;;;;;55.50;30.38;;;;;;;;;;6229269;28;20011;-68
2021/12/23 12:14:34;;;;;;;106.00;46.92;;;;;;;;;;6235870;28;20036;-68
2021/12/23 12:17:36;;;;;;;83.22;33.40;;;;;;;;;;6240030;28;20021;-68
2021/12/23 12:20:46;;;;;;;61.75;31.60;;;;;;;;;;6237572;28;20024;-68
2021/12/23 12:23:46;;;;;;;53.22;28.00;;;;;;;;;;6228553;28;20033;-68
2021/12/23 12:27:01;;;;;;;50.17;26.20;;;;;;;;;;6240285;28;20074;-68
2021/12/23 12:30:07;;;;;;;54.53;27.65;;;;;;;;;;6221820;28;20088;-68
2021/12/23 12:33:25;;;;;;;54.83;26.90;;;;;;;;;;6219686;28;20481;-68
2021/12/23 12:36:26;;;;;;;38.78;19.73;;;;;;;;;;6219796;28;20584;-68
2021/12/23 12:39:35;;;;;;;40.28;19.65;;;;;;;;;;6236960;28;20026;-68
2021/12/23 12:42:40;;;;;;;52.58;25.70;;;;;;;;;;6243940;28;20029;-68
2021/12/23 12:45:44;;;;;;;49.78;25.30;;;;;;;;;;6245487;28;20493;-68
2021/12/23 12:48:54;;;;;;;48.47;19.60;;;;;;;;;;6235961;28;20060;-68
2021/12/23 12:52:06;;;;;;;50.88;25.60;;;;;;;;;;6245098;28;20100;-68
2021/12/23 12:55:10;;;;;;;58.80;28.10;;;;;;;;;;6244941;28;20381;-68
2021/12/23 12:58:10;;;;;;;64.05;32.17;;;;;;;;;;6245280;28;20029;-68
2021/12/23 13:01:10;;;;;;;69.75;27.88;;;;;;;;;;6232360;28;20014;-68
2021/12/23 13:04:31;;;;;;;67.45;28.85;;;;;;;;;;6227577;28;20853;-68
2021/12/23 13:07:41;;;;;;;80.82;35.10;;;;;;;;;;6237504;28;20041;-69
2021/12/23 13:10:47;;;;;;;87.07;39.22;;;;;;;;;;6238952;28;20095;-68
2021/12/23 13:13:59;;;;;;;97.45;38.25;;;;;;;;;;6242710;28;20029;-68
2021/12/23 13:16:59;;;;;;;75.78;35.90;;;;;;;;;;6220876;28;20057;-69
2021/12/23 13:20:03;;;;;;;76.70;32.83;;;;;;;;;;6243182;28;20024;-69
2021/12/23 13:23:06;;;;;;;67.18;28.33;;;;;;;;;;6242693;28;20358;-69
2021/12/23 13:26:08;;;;;;;56.90;27.35;;;;;;;;;;6243356;28;20017;-68
2021/12/23 13:29:09;;;;;;;76.30;32.72;;;;;;;;;;6243771;28;20025;-68
2021/12/23 13:32:10;;;;;;;54.03;24.63;;;;;;;;;;6243069;28;20009;-68
2021/12/23 13:35:14;;;;;;;42.95;22.10;;;;;;;;;;6243127;28;20384;-69
2021/12/23 13:38:47;;;;;;;54.10;27.52;;;;;;;;;;6242373;28;20166;-69
2021/12/23 13:41:49;;;;;;;55.25;26.75;;;;;;;;;;6207822;28;20037;-69
2021/12/23 13:44:51;;;;;;;51.67;26.45;;;;;;;;;;6240540;28;20021;-69
2021/12/23 13:47:53;;;;;;;57.22;27.10;;;;;;;;;;6239868;28;20049;-69
2021/12/23 13:50:53;;;;;;;57.58;26.02;;;;;;;;;;6231840;28;20029;-69
2021/12/23 13:54:07;;;;;;;58.85;27.85;;;;;;;;;;6243692;28;20022;-68
2021/12/23 13:57:10;;;;;;;59.70;28.85;;;;;;;;;;6243393;28;20128;-69
2021/12/23 14:00:11;;;;;;;57.35;28.52;;;;;;;;;;6239748;28;20020;-68
2021/12/23 14:03:12;;;;;;;62.00;28.73;;;;;;;;;;6216790;28;20093;-68
2021/12/23 14:06:13;;;;;;;64.40;29.87;;;;;;;;;;6228594;28;20029;-68
2021/12/23 14:09:14;;;;;;;93.20;37.85;;;;;;;;;;6238119;28;20418;-69
2021/12/23 14:12:15;;;;;;;79.47;36.47;;;;;;;;;;6242277;28;20092;-68
2021/12/23 14:15:17;;;;;;;66.78;32.88;;;;;;;;;;6239890;28;20164;-69
2021/12/23 14:24:41;;;;;;;92.88;44.08;;;;;;;;;;6240213;28;20022;-68
2021/12/23 14:27:42;;;;;;;108.22;46.25;;;;;;;;;;6235733;28;20119;-69
2021/12/23 14:30:53;;;;;;;89.95;44.72;;;;;;;;;;6243969;28;20031;-69
2021/12/23 14:33:57;;;;;;;96.35;44.53;;;;;;;;;;6242797;28;20152;-68
2021/12/23 14:37:02;;;;;;;97.60;43.38;;;;;;;;;;6241908;28;20116;-69
2021/12/23 14:40:03;;;;;;;95.55;40.78;;;;;;;;;;6243305;28;20063;-69
2021/12/23 14:43:03;;;;;;;89.53;40.15;;;;;;;;;;6242898;28;20018;-69
2021/12/23 14:46:03;;;;;;;81.68;40.35;;;;;;;;;;6243304;28;20026;-68
2021/12/23 14:52:14;;;;;;;100.65;48.72;;;;;;;;;;6220944;28;20046;-69
2021/12/23 14:55:19;;;;;;;110.43;49.05;;;;;;;;;;6217066;28;20014;-68
2021/12/23 14:58:19;;;;;;;98.35;49.10;;;;;;;;;;6218413;28;20044;-69
2021/12/23 15:01:19;;;;;;;110.82;51.80;;;;;;;;;;6218848;28;20018;-69
2021/12/23 15:04:19;;;;;;;92.32;40.70;;;;;;;;;;6216845;28;20021;-70
2021/12/23 15:07:20;;;;;;;102.38;48.25;;;;;;;;;;6229714;28;20021;-69
2021/12/23 15:10:28;;;;;;;115.60;53.45;;;;;;;;;;6240726;28;20021;-68
2021/12/23 15:13:29;;;;;;;105.15;48.22;;;;;;;;;;6241084;28;20053;-68
2021/12/23 15:16:30;;;;;;;103.25;49.90;;;;;;;;;;6215852;28;20040;-68
2021/12/23 15:19:39;;;;;;;93.72;45.70;;;;;;;;;;6216571;28;20471;-68
2021/12/23 15:22:43;;;;;;;94.28;49.22;;;;;;;;;;6232769;28;20108;-69
2021/12/23 15:25:44;;;;;;;99.82;46.00;;;;;;;;;;6242775;28;20160;-69
2021/12/23 15:29:01;;;;;;;102.22;46.67;;;;;;;;;;6241292;28;20017;-68
2021/12/23 15:32:03;;;;;;;98.95;44.97;;;;;;;;;;6241138;28;20025;-68
2021/12/23 15:35:07;;;;;;;86.35;42.90;;;;;;;;;;6241782;28;20394;-68
2021/12/23 15:38:07;;;;;;;91.75;41.40;;;;;;;;;;6227910;28;20374;-68
2021/12/23 15:41:07;;;;;;;88.80;40.08;;;;;;;;;;6221872;28;20050;-68
2021/12/23 15:44:08;;;;;;;88.82;41.33;;;;;;;;;;6234044;28;20445;-68
2021/12/23 15:47:10;;;;;;;93.00;44.60;;;;;;;;;;6219000;28;20040;-68
2021/12/23 15:50:10;;;;;;;104.57;46.50;;;;;;;;;;6228386;28;20067;-68
2021/12/23 15:53:10;;;;;;;116.60;51.53;;;;;;;;;;6223199;28;20013;-68
2021/12/23 15:56:11;;;;;;;97.05;44.25;;;;;;;;;;6228250;28;20079;-68
2021/12/23 15:59:11;;;;;;;108.28;51.60;;;;;;;;;;6246008;28;20068;-68
2021/12/23 16:02:12;;;;;;;107.45;49.05;;;;;;;;;;6244996;28;20018;-68
2021/12/23 16:08:12;;;;;;;110.30;53.42;;;;;;;;;;6245929;28;20022;-68
2021/12/23 16:11:12;;;;;;;102.38;50.80;;;;;;;;;;6244259;28;20041;-68
2021/12/23 16:14:13;;;;;;;108.72;51.05;;;;;;;;;;6244305;28;20398;-68
2021/12/23 16:17:13;;;;;;;118.07;52.03;;;;;;;;;;6244319;28;20034;-68
2021/12/23 16:20:16;;;;;;;119.35;51.35;;;;;;;;;;6245047;28;20029;-68
2021/12/23 16:23:16;;;;;;;198.23;81.88;;;;;;;;;;6245370;28;20025;-68
2021/12/23 16:26:16;;;;;;;150.40;65.88;;;;;;;;;;6236408;28;20025;-68
2021/12/23 16:29:17;;;;;;;175.68;70.63;;;;;;;;;;6220340;28;20010;-68
2021/12/23 16:32:17;;;;;;;244.55;90.75;;;;;;;;;;6238926;28;20044;-68
2021/12/23 16:35:18;;;;;;;159.32;69.63;;;;;;;;;;6234841;28;20028;-68
2021/12/23 16:38:19;;;;;;;145.27;63.17;;;;;;;;;;6237629;28;20382;-69
2021/12/23 16:41:20;;;;;;;164.45;66.40;;;;;;;;;;6220616;28;20018;-68
2021/12/23 16:44:20;;;;;;;120.43;55.00;;;;;;;;;;6222826;28;20381;-68
2021/12/23 16:47:20;;;;;;;113.38;50.92;;;;;;;;;;6245546;28;20061;-68
2021/12/23 16:50:21;;;;;;;113.05;51.15;;;;;;;;;;6228962;28;20036;-68
2021/12/23 16:53:22;;;;;;;297.95;112.13;;;;;;;;;;6236967;28;20489;-68
2021/12/23 16:59:55;;;;;;;167.85;59.80;;;;;;;;;;6221237;28;20025;-68
2021/12/23 17:02:56;;;;;;;120.38;51.45;;;;;;;;;;6245396;28;20103;-68
2021/12/23 17:05:57;;;;;;;103.60;46.50;;;;;;;;;;6245358;28;20033;-68
2021/12/23 17:08:58;;;;;;;71.10;34.87;;;;;;;;;;6238356;28;20100;-68
2021/12/23 17:11:58;;;;;;;77.18;36.30;;;;;;;;;;6239109;28;20733;-68
2021/12/23 17:14:59;;;;;;;63.95;29.33;;;;;;;;;;6238291;28;20807;-68
2021/12/23 17:18:02;;;;;;;73.43;34.05;;;;;;;;;;6242067;28;20029;-68
2021/12/23 17:24:05;;;;;;;64.20;30.60;;;;;;;;;;6238921;28;20045;-69
2021/12/23 17:27:05;;;;;;;68.25;34.47;;;;;;;;;;6236921;28;20091;-68
2021/12/23 17:30:06;;;;;;;37.13;18.27;;;;;;;;;;6241322;28;20029;-68
2021/12/23 17:33:06;;;;;;;54.33;23.15;;;;;;;;;;6217958;28;20100;-68
2021/12/23 17:36:06;;;;;;;73.38;30.85;;;;;;;;;;6222440;28;20025;-68
2021/12/23 17:39:10;;;;;;;63.72;29.45;;;;;;;;;;6221002;28;20030;-68
2021/12/23 17:42:10;;;;;;;42.30;21.05;;;;;;;;;;6234074;28;20022;-68
2021/12/23 17:45:11;;;;;;;68.00;28.88;;;;;;;;;;6242979;28;20056;-68
2021/12/23 17:48:12;;;;;;;72.00;30.13;;;;;;;;;;6237477;28;20374;-68
2021/12/23 17:51:12;;;;;;;57.60;27.75;;;;;;;;;;6234426;28;20029;-68
2021/12/23 17:54:12;;;;;;;89.28;32.97;;;;;;;;;;6244335;28;20032;-68
2021/12/23 17:57:13;;;;;;;88.60;47.22;;;;;;;;;;6243795;28;20087;-68
2021/12/23 18:00:13;;;;;;;150.30;66.55;;;;;;;;;;6240884;28;20018;-68
2021/12/23 18:03:13;;;;;;;129.73;61.35;;;;;;;;;;6229646;28;20543;-68
2021/12/23 18:06:15;;;;;;;144.20;60.00;;;;;;;;;;6234591;28;20441;-68
2021/12/23 18:09:15;;;;;;;83.65;38.75;;;;;;;;;;6223189;28;20026;-68
2021/12/23 18:12:16;;;;;;;66.57;30.23;;;;;;;;;;6238392;28;20521;-69
2021/12/23 18:15:16;;;;;;;37.97;18.40;;;;;;;;;;6242207;28;20100;-68
2021/12/23 18:18:16;;;;;;;52.80;27.15;;;;;;;;;;6242392;28;20029;-68
2021/12/23 18:21:17;;;;;;;40.30;17.13;;;;;;;;;;6234211;28;20453;-68
2021/12/23 18:24:17;;;;;;;55.47;23.75;;;;;;;;;;6239448;28;20037;-68
2021/12/23 18:27:19;;;;;;;27.42;15.07;;;;;;;;;;6241820;28;20388;-68
2021/12/23 18:30:19;;;;;;;;;;;;;;;;;;6242745;28;20063;-68
2021/12/23 18:33:22;;;;;;;27.27;14.23;;;;;;;;;;6242609;28;19908;-68
2021/12/23 18:36:27;;;;;;;;;;;;;;;;;;6241367;28;20260;-68
2021/12/23 18:39:34;;;;;;;47.35;23.05;;;;;;;;;;6234127;28;20011;-68
2021/12/23 18:42:39;;;;;;;29.65;17.90;;;;;;;;;;6241483;28;20499;-68
2021/12/23 18:45:40;;;;;;;46.30;19.30;;;;;;;;;;6240605;28;20036;-68
2021/12/23 18:48:41;;;;;;;35.90;14.10;;;;;;;;;;6241955;28;20537;-68
2021/12/23 18:51:41;;;;;;;22.05;10.93;;;;;;;;;;6241929;28;20018;-69
2021/12/23 18:54:42;;;;;;;49.53;22.13;;;;;;;;;;6242082;28;20026;-69
2021/12/23 18:57:42;;;;;;;47.92;18.88;;;;;;;;;;6241337;28;20025;-68
2021/12/23 19:00:58;;;;;;;16.75;10.10;;;;;;;;;;6242101;28;20052;-68
2021/12/23 19:07:01;;;;;;;48.20;21.42;;;;;;;;;;6223978;28;20452;-69